createdAt,value
2019-01-11T00:01:49.516Z,101874.52
2019-01-11T00:04:22.661Z,101871.86
2019-01-11T00:06:55.567Z,101856.84
2019-01-11T00:09:28.132Z,101855.06
2019-01-11T00:12:00.091Z,101853.75
2019-01-11T00:14:33.173Z,101856.38
2019-01-11T00:17:05.741Z,101852.39
2019-01-11T00:19:37.922Z,101840.05
2019-01-11T00:22:10.604Z,101825.95
2019-01-11T00:24:43.845Z,101831.23
2019-01-11T00:27:16.383Z,101834.75
2019-01-11T00:29:49.370Z,101823.69
2019-01-11T00:32:22.584Z,101825.45
2019-01-11T00:34:54.880Z,101817.92
2019-01-11T00:37:27.604Z,101820.15
2019-01-11T00:39:59.396Z,101810.42
2019-01-11T00:42:32.165Z,101811.71
2019-01-11T00:45:04.362Z,101816.56
2019-01-11T00:47:36.597Z,101815.66
2019-01-11T00:50:09.691Z,101810.32
2019-01-11T00:52:42.365Z,101804.58
2019-01-11T00:55:14.943Z,101802.78
2019-01-11T00:57:46.726Z,101801.48
2019-01-11T01:00:21.477Z,101798.42
2019-01-11T01:02:54.069Z,101785.98
2019-01-11T01:05:26.285Z,101770.48
2019-01-11T01:07:58.599Z,101778.41
2019-01-11T01:10:30.991Z,101767.78
2019-01-11T01:13:03.585Z,101761.17
2019-01-11T01:15:36.178Z,101753.69
2019-01-11T01:18:08.310Z,101760.69
2019-01-11T01:20:40.498Z,101774.81
2019-01-11T01:23:12.750Z,101766.81
2019-01-11T01:25:45.251Z,101764.97
2019-01-11T01:28:17.422Z,101766.73
2019-01-11T01:30:50.005Z,101765.41
2019-01-11T01:33:22.753Z,101755.63
2019-01-11T01:35:54.543Z,101758.27
2019-01-11T01:38:27.522Z,101758.19
2019-01-11T01:40:59.645Z,101751.09
2019-01-11T01:43:33.357Z,101746.18
2019-01-11T01:46:05.361Z,101742.59
2019-01-11T01:48:37.976Z,101732.47
2019-01-11T01:51:09.782Z,101736.39
2019-01-11T01:53:42.323Z,101731.98
2019-01-11T01:56:14.941Z,101727.00
2019-01-11T01:58:46.779Z,101731.87
2019-01-11T02:01:19.380Z,101736.27
2019-01-11T02:03:51.229Z,101735.80
2019-01-11T02:06:23.791Z,101740.69
2019-01-11T02:08:55.716Z,101740.26
2019-01-11T02:11:29.399Z,101734.56
2019-01-11T02:14:02.040Z,101737.16
2019-01-11T02:16:34.492Z,101738.91
2019-01-11T02:19:06.352Z,101734.84
2019-01-11T02:21:37.594Z,101731.39
2019-01-11T02:24:09.366Z,101727.79
2019-01-11T02:26:41.257Z,101719.28
2019-01-11T02:29:13.445Z,101726.38
2019-01-11T02:31:46.129Z,101725.50
2019-01-11T02:34:19.963Z,101717.91
2019-01-11T02:36:52.527Z,101715.31
2019-01-11T02:39:24.650Z,101705.45
2019-01-11T02:41:57.899Z,101714.32
2019-01-11T02:44:30.050Z,101710.82
2019-01-11T02:47:02.371Z,101697.47
2019-01-11T02:49:39.925Z,101690.39
2019-01-11T02:52:08.150Z,101686.80
2019-01-11T02:54:40.008Z,101682.35
2019-01-11T02:57:11.892Z,101680.50
2019-01-11T02:59:43.818Z,101682.64
2019-01-11T03:02:16.296Z,101676.83
2019-01-11T03:04:48.777Z,101682.17
2019-01-11T03:07:20.905Z,101674.59
2019-01-11T03:09:53.522Z,101665.27
2019-01-11T03:12:25.831Z,101665.16
2019-01-11T03:14:57.609Z,101660.23
2019-01-11T03:17:29.880Z,101664.30
2019-01-11T03:20:01.978Z,101659.84
2019-01-11T03:22:33.748Z,101662.48
2019-01-11T03:25:07.591Z,101666.81
2019-01-11T03:27:39.764Z,101660.20
2019-01-11T03:30:18.602Z,101657.05
2019-01-11T03:32:51.492Z,101658.73
2019-01-11T03:35:23.342Z,101653.94
2019-01-11T03:37:55.449Z,101657.96
2019-01-11T03:40:29.035Z,101649.48
2019-01-11T03:43:00.795Z,101645.13
2019-01-11T03:45:33.725Z,101639.28
2019-01-11T03:48:05.344Z,101638.77
2019-01-11T03:50:38.123Z,101629.55
2019-01-11T03:53:10.584Z,101621.95
2019-01-11T03:55:41.693Z,101621.80
2019-01-11T03:58:13.126Z,101614.69
2019-01-11T04:00:45.216Z,101612.82
2019-01-11T04:03:17.647Z,101617.30
2019-01-11T04:05:50.436Z,101613.20
2019-01-11T04:08:21.637Z,101607.85
2019-01-11T04:10:54.185Z,101603.78
2019-01-11T04:13:30.475Z,101604.50
2019-01-11T04:16:00.547Z,101607.55
2019-01-11T04:18:33.583Z,101597.70
2019-01-11T04:21:05.359Z,101596.80
2019-01-11T04:23:38.385Z,101601.17
2019-01-11T04:26:11.143Z,101601.09
2019-01-11T04:28:43.388Z,101599.23
2019-01-11T04:31:15.303Z,101598.17
2019-01-11T04:33:47.519Z,101590.72
2019-01-11T04:36:19.310Z,101585.83
2019-01-11T04:38:51.138Z,101575.39
2019-01-11T04:41:23.860Z,101570.09
2019-01-11T04:43:55.461Z,101560.72
2019-01-11T04:46:27.562Z,101565.51
2019-01-11T04:48:58.687Z,101560.55
2019-01-11T04:51:31.296Z,101557.72
2019-01-11T04:54:03.015Z,101549.90
2019-01-11T04:56:36.022Z,101541.70
2019-01-11T04:59:09.052Z,101542.42
2019-01-11T05:01:41.154Z,101536.63
2019-01-11T05:04:14.020Z,101530.72
2019-01-11T05:06:46.088Z,101531.87
2019-01-11T05:09:17.977Z,101520.77
2019-01-11T05:11:50.119Z,101523.71
2019-01-11T05:14:21.955Z,101519.50
2019-01-11T05:16:54.182Z,101522.56
2019-01-11T05:19:26.884Z,101518.92
2019-01-11T05:21:59.382Z,101517.34
2019-01-11T05:24:30.883Z,101516.72
2019-01-11T05:27:03.094Z,101511.47
2019-01-11T05:29:34.847Z,101516.44
2019-01-11T05:32:07.601Z,101515.86
2019-01-11T05:34:41.713Z,101512.01
2019-01-11T05:37:17.368Z,101502.29
2019-01-11T05:39:49.307Z,101500.38
2019-01-11T05:42:22.133Z,101504.48
2019-01-11T05:44:54.429Z,101497.39
2019-01-11T05:47:27.138Z,101499.52
2019-01-11T05:49:59.783Z,101497.03
2019-01-11T05:52:31.890Z,101500.81
2019-01-11T05:55:04.184Z,101491.80
2019-01-11T05:57:36.139Z,101490.27
2019-01-11T06:00:08.856Z,101492.04
2019-01-11T06:02:40.672Z,101485.06
2019-01-11T06:05:13.851Z,101491.84
2019-01-11T06:07:50.964Z,101486.94
2019-01-11T06:10:23.508Z,101484.59
2019-01-11T06:12:56.013Z,101471.70
2019-01-11T06:15:29.378Z,101479.27
2019-01-11T06:18:01.546Z,101474.05
2019-01-11T06:20:35.549Z,101472.20
2019-01-11T06:23:07.497Z,101472.56
2019-01-11T06:25:39.339Z,101470.80
2019-01-11T06:28:12.244Z,101469.08
2019-01-11T06:30:44.073Z,101465.20
2019-01-11T06:33:17.163Z,101459.31
2019-01-11T06:35:50.262Z,101465.98
2019-01-11T06:38:23.202Z,101466.80
2019-01-11T06:40:55.057Z,101464.92
2019-01-11T06:43:27.331Z,101459.51
2019-01-11T06:46:00.610Z,101464.64
2019-01-11T06:48:51.355Z,101455.39
2019-01-11T06:51:23.188Z,101458.95
2019-01-11T06:53:55.867Z,101454.05
2019-01-11T06:56:28.622Z,101448.99
2019-01-11T06:59:03.251Z,101453.89
2019-01-11T07:01:36.059Z,101442.67
2019-01-11T07:04:08.214Z,101441.26
2019-01-11T07:06:41.408Z,101445.26
2019-01-11T07:09:13.688Z,101450.11
2019-01-11T07:11:45.474Z,101446.97
2019-01-11T07:14:17.630Z,101444.70
2019-01-11T07:16:48.893Z,101439.84
2019-01-11T07:19:21.001Z,101440.22
2019-01-11T07:21:53.091Z,101448.70
2019-01-11T07:24:25.396Z,101446.50
2019-01-11T07:26:57.962Z,101447.19
2019-01-11T07:29:29.844Z,101441.25
2019-01-11T07:32:02.753Z,101443.66
2019-01-11T07:34:34.954Z,101448.74
2019-01-11T07:37:07.614Z,101447.02
2019-01-11T07:39:39.884Z,101442.55
2019-01-11T07:42:12.218Z,101438.08
2019-01-11T07:44:44.186Z,101439.63
2019-01-11T07:47:16.639Z,101434.29
2019-01-11T07:49:49.914Z,101436.48
2019-01-11T07:52:21.693Z,101422.38
2019-01-11T07:54:56.050Z,101424.14
2019-01-11T07:57:28.586Z,101426.73
2019-01-11T08:00:01.250Z,101421.34
2019-01-11T08:02:34.403Z,101425.91
2019-01-11T08:05:07.754Z,101423.33
2019-01-11T08:07:39.929Z,101431.32
2019-01-11T08:10:12.754Z,101418.42
2019-01-11T08:12:44.300Z,101422.97
2019-01-11T08:15:56.141Z,101422.34
2019-01-11T08:18:29.083Z,101416.01
2019-01-11T08:21:00.917Z,101408.91
2019-01-11T08:23:32.768Z,101411.62
2019-01-11T08:26:05.061Z,101403.97
2019-01-11T08:28:36.987Z,101407.58
2019-01-11T08:31:10.334Z,101413.98
2019-01-11T08:33:43.139Z,101415.06
2019-01-11T08:36:15.205Z,101417.22
2019-01-11T08:38:47.065Z,101407.84
2019-01-11T08:41:19.695Z,101416.39
2019-01-11T08:43:52.208Z,101405.39
2019-01-11T08:46:24.502Z,101403.02
2019-01-11T08:48:56.336Z,101410.55
2019-01-11T08:51:29.284Z,101405.87
2019-01-11T08:54:01.126Z,101405.73
2019-01-11T08:56:34.412Z,101412.48
2019-01-11T08:59:06.377Z,101409.30
2019-01-11T09:01:39.375Z,101410.63
2019-01-11T09:04:12.049Z,101406.46
2019-01-11T09:06:44.682Z,101401.98
2019-01-11T09:09:16.758Z,101405.89
2019-01-11T09:11:48.680Z,101404.13
2019-01-11T09:14:39.452Z,101401.12
2019-01-11T09:17:11.756Z,101400.78
2019-01-11T09:19:44.526Z,101397.45
2019-01-11T09:22:18.491Z,101399.45
2019-01-11T09:24:52.312Z,101385.59
2019-01-11T09:27:24.942Z,101385.47
2019-01-11T09:29:57.236Z,101381.27
2019-01-11T09:32:28.828Z,101388.89
2019-01-11T09:35:01.649Z,101387.51
2019-01-11T09:37:33.576Z,101381.70
2019-01-11T09:40:05.947Z,101391.52
2019-01-11T09:42:38.364Z,101390.17
2019-01-11T09:45:11.791Z,101387.94
2019-01-11T09:47:44.531Z,101378.51
2019-01-11T09:50:18.438Z,101372.17
2019-01-11T09:52:50.907Z,101370.90
2019-01-11T09:55:23.634Z,101373.13
2019-01-11T09:57:56.708Z,101372.28
2019-01-11T10:00:29.356Z,101370.56
2019-01-11T10:03:06.912Z,101366.45
2019-01-11T10:05:40.105Z,101367.80
2019-01-11T10:08:12.942Z,101369.37
2019-01-11T10:10:45.338Z,101365.84
2019-01-11T10:13:18.539Z,101359.03
2019-01-11T10:15:51.332Z,101358.88
2019-01-11T10:18:23.277Z,101339.44
2019-01-11T10:20:54.589Z,101339.12
2019-01-11T10:23:28.250Z,101333.73
2019-01-11T10:26:00.622Z,101332.14
2019-01-11T10:28:34.071Z,101326.70
2019-01-11T10:31:06.478Z,101314.41
2019-01-11T10:33:38.613Z,101315.17
2019-01-11T10:36:10.049Z,101303.02
2019-01-11T10:38:42.388Z,101301.14
2019-01-11T10:41:14.371Z,101296.13
2019-01-11T10:43:46.835Z,101297.20
2019-01-11T10:46:35.324Z,101290.16
2019-01-11T10:49:07.753Z,101284.17
2019-01-11T10:51:40.888Z,101276.91
2019-01-11T10:54:22.092Z,101269.34
2019-01-11T10:56:54.526Z,101270.14
2019-01-11T10:59:27.609Z,101268.16
2019-01-11T11:02:00.896Z,101266.12
2019-01-11T11:04:33.655Z,101267.56
2019-01-11T11:07:06.447Z,101261.43
2019-01-11T11:09:39.492Z,101249.45
2019-01-11T11:12:11.500Z,101249.03
2019-01-11T11:14:43.518Z,101243.84
2019-01-11T11:17:18.258Z,101241.48
2019-01-11T11:19:50.512Z,101246.88
2019-01-11T11:22:23.578Z,101247.80
2019-01-11T11:24:55.936Z,101248.82
2019-01-11T11:27:49.139Z,101253.77
2019-01-11T11:30:23.325Z,101243.02
2019-01-11T11:32:57.519Z,101253.06
2019-01-11T11:35:31.606Z,101246.75
2019-01-11T11:38:03.476Z,101239.34
2019-01-11T11:40:35.899Z,101241.78
2019-01-11T11:43:08.245Z,101243.42
2019-01-11T11:45:41.043Z,101237.77
2019-01-11T11:48:12.761Z,101233.94
2019-01-11T11:50:45.461Z,101243.70
2019-01-11T11:53:18.645Z,101236.85
2019-01-11T11:55:51.678Z,101243.73
2019-01-11T11:58:23.780Z,101236.55
2019-01-11T12:00:56.061Z,101226.75
2019-01-11T12:03:27.675Z,101227.12
2019-01-11T12:06:00.322Z,101222.51
2019-01-11T12:08:32.497Z,101219.52
2019-01-11T12:11:06.462Z,101219.81
2019-01-11T12:13:39.462Z,101219.32
2019-01-11T12:16:12.098Z,101209.20
2019-01-11T12:18:44.965Z,101206.12
2019-01-11T12:24:10.695Z,101198.24
2019-01-11T12:26:44.474Z,101178.11
2019-01-11T12:29:17.352Z,101180.30
2019-01-11T12:31:50.550Z,101178.95
2019-01-11T12:34:23.002Z,101184.16
2019-01-11T12:36:56.500Z,101182.95
2019-01-11T12:39:29.221Z,101183.42
2019-01-11T12:42:02.162Z,101177.66
2019-01-11T12:44:36.484Z,101174.55
2019-01-11T12:47:08.399Z,101176.59
2019-01-11T12:49:40.379Z,101172.77
2019-01-11T12:52:13.188Z,101177.33
2019-01-11T12:54:45.869Z,101178.45
2019-01-11T12:57:19.184Z,101177.63
2019-01-11T12:59:51.704Z,101172.27
2019-01-11T13:02:24.676Z,101169.63
2019-01-11T13:04:57.346Z,101160.91
2019-01-11T13:07:29.346Z,101168.71
2019-01-11T13:10:01.750Z,101163.92
2019-01-11T13:12:35.221Z,101163.97
2019-01-11T13:15:10.625Z,101171.98
2019-01-11T13:17:42.679Z,101174.78
2019-01-11T13:20:17.280Z,101178.89
2019-01-11T13:22:50.741Z,101169.77
2019-01-11T13:25:32.313Z,101165.76
2019-01-11T13:28:04.678Z,101172.06
2019-01-11T13:30:36.691Z,101172.06
2019-01-11T13:33:09.518Z,101173.19
2019-01-11T13:35:42.199Z,101171.22
2019-01-11T13:38:14.479Z,101163.16
2019-01-11T13:40:46.938Z,101174.27
2019-01-11T13:43:18.968Z,101177.56
2019-01-11T13:45:51.530Z,101187.72
2019-01-11T13:48:23.927Z,101183.34
2019-01-11T13:50:56.778Z,101189.91
2019-01-11T13:53:30.193Z,101197.12
2019-01-11T13:56:03.265Z,101187.25
2019-01-11T13:58:37.247Z,101190.12
2019-01-11T14:01:15.590Z,101191.04
2019-01-11T14:03:48.081Z,101182.39
2019-01-11T14:06:23.290Z,101189.44
2019-01-11T14:08:56.319Z,101187.88
2019-01-11T14:11:28.748Z,101194.13
2019-01-11T14:14:01.673Z,101196.75
2019-01-11T14:16:34.391Z,101193.59
2019-01-11T14:19:06.913Z,101192.80
2019-01-11T14:21:39.933Z,101195.56
2019-01-11T14:24:12.745Z,101194.83
2019-01-11T14:26:44.761Z,101202.54
2019-01-11T14:29:17.310Z,101199.84
2019-01-11T14:31:51.516Z,101202.54
2019-01-11T14:34:23.775Z,101206.16
2019-01-11T14:36:56.793Z,101211.75
2019-01-11T14:39:30.423Z,101206.16
2019-01-11T14:42:03.075Z,101227.13
2019-01-11T14:44:35.721Z,101229.84
2019-01-11T14:47:08.020Z,101232.56
2019-01-11T14:49:40.247Z,101224.61
2019-01-11T14:52:20.167Z,101225.03
2019-01-11T14:54:48.442Z,101223.61
2019-01-11T14:57:22.198Z,101222.77
2019-01-11T14:59:55.499Z,101227.00
2019-01-11T15:02:28.948Z,101238.30
2019-01-11T15:05:03.017Z,101241.22
2019-01-11T15:07:36.309Z,101231.14
2019-01-11T15:10:10.771Z,101234.66
2019-01-11T15:12:45.285Z,101227.28
2019-01-11T15:15:18.930Z,101222.68
2019-01-11T15:17:51.622Z,101236.38
2019-01-11T15:20:26.471Z,101235.52
2019-01-11T15:22:59.350Z,101248.70
2019-01-11T15:25:34.584Z,101247.14
2019-01-11T15:28:08.654Z,101253.05
2019-01-11T15:30:42.168Z,101252.80
2019-01-11T15:33:14.947Z,101261.22
2019-01-11T15:35:49.794Z,101262.51
2019-01-11T15:38:22.927Z,101270.03
2019-01-11T15:40:57.551Z,101267.37
2019-01-11T15:43:30.154Z,101276.74
2019-01-11T15:46:15.041Z,101278.16
2019-01-11T15:48:51.442Z,101264.84
2019-01-11T15:51:27.601Z,101276.88
2019-01-11T15:54:03.339Z,101268.84
2019-01-11T15:56:36.644Z,101262.70
2019-01-11T15:59:09.720Z,101266.78
2019-01-11T16:01:42.228Z,101261.36
2019-01-11T16:04:14.773Z,101265.31
2019-01-11T16:06:49.611Z,101266.55
2019-01-11T16:10:06.025Z,101264.55
2019-01-11T16:13:11.915Z,101268.45
2019-01-11T16:16:25.766Z,101270.03
2019-01-11T16:19:00.369Z,101264.22
2019-01-11T16:21:32.190Z,101264.98
2019-01-11T16:24:05.153Z,101272.34
2019-01-11T16:26:37.294Z,101261.61
2019-01-11T16:29:10.028Z,101267.67
2019-01-11T16:31:43.889Z,101275.48
2019-01-11T16:34:15.878Z,101274.77
2019-01-11T16:36:51.846Z,101272.09
2019-01-11T16:39:24.670Z,101268.59
2019-01-11T16:41:58.018Z,101264.48
2019-01-11T16:44:29.887Z,101268.77
2019-01-11T16:47:02.331Z,101277.67
2019-01-11T16:49:34.358Z,101267.82
2019-01-11T16:52:07.229Z,101272.05
2019-01-11T16:54:53.927Z,101266.09
2019-01-11T16:57:27.024Z,101277.94
2019-01-11T17:00:00.101Z,101270.52
2019-01-11T17:02:36.720Z,101272.88
2019-01-11T17:05:10.187Z,101277.00
2019-01-11T17:07:43.116Z,101279.95
2019-01-11T17:10:17.011Z,101278.20
2019-01-11T17:12:50.523Z,101286.48
2019-01-11T17:15:22.880Z,101289.54
2019-01-11T17:17:55.547Z,101282.62
2019-01-11T17:20:28.102Z,101290.94
2019-01-11T17:23:01.551Z,101292.70
2019-01-11T17:25:34.678Z,101291.51
2019-01-11T17:28:07.859Z,101299.83
2019-01-11T17:30:41.312Z,101298.77
2019-01-11T17:33:14.803Z,101297.13
2019-01-11T17:35:48.396Z,101299.79
2019-01-11T17:38:21.049Z,101296.02
2019-01-11T17:40:53.934Z,101296.14
2019-01-11T17:43:26.653Z,101298.11
2019-01-11T17:45:58.836Z,101293.97
2019-01-11T17:48:32.598Z,101296.59
2019-01-11T17:51:04.876Z,101294.44
2019-01-11T17:53:37.881Z,101290.41
2019-01-11T17:56:10.731Z,101296.16
2019-01-11T17:58:44.442Z,101304.77
2019-01-11T18:01:17.508Z,101306.09
2019-01-11T18:03:51.051Z,101304.80
2019-01-11T18:06:26.054Z,101307.70
2019-01-11T18:08:58.939Z,101312.24
2019-01-11T18:11:31.541Z,101314.08
2019-01-11T18:14:03.975Z,101315.95
2019-01-11T18:16:36.232Z,101322.84
2019-01-11T18:19:08.173Z,101324.99
2019-01-11T18:21:41.043Z,101325.03
2019-01-11T18:24:14.298Z,101319.16
2019-01-11T18:26:47.480Z,101326.90
2019-01-11T18:29:20.055Z,101330.89
2019-01-11T18:31:58.737Z,101340.99
2019-01-11T18:34:31.948Z,101333.12
2019-01-11T18:37:07.028Z,101340.70
2019-01-11T18:39:39.401Z,101341.25
2019-01-11T18:42:14.018Z,101339.73
2019-01-11T18:44:46.772Z,101334.87
2019-01-11T18:47:19.857Z,101336.28
2019-01-11T18:49:52.590Z,101348.76
2019-01-11T18:52:26.588Z,101344.80
2019-01-11T18:55:00.961Z,101348.91
2019-01-11T18:57:34.070Z,101348.04
2019-01-11T19:00:14.334Z,101352.96
2019-01-11T19:02:48.665Z,101352.67
2019-01-11T19:05:21.701Z,101365.39
2019-01-11T19:07:55.324Z,101363.34
2019-01-11T19:10:27.769Z,101362.44
2019-01-11T19:12:59.641Z,101360.11
2019-01-11T19:15:34.943Z,101350.37
2019-01-11T19:18:08.948Z,101358.48
2019-01-11T19:20:41.289Z,101362.01
2019-01-11T19:23:20.410Z,101358.41
2019-01-11T19:25:50.148Z,101361.67
2019-01-11T19:28:24.317Z,101360.47
2019-01-11T19:30:57.296Z,101370.78
2019-01-11T19:33:29.497Z,101376.63
2019-01-11T19:36:02.207Z,101377.93
2019-01-11T19:38:35.063Z,101377.00
2019-01-11T19:41:07.806Z,101378.09
2019-01-11T19:43:40.549Z,101376.59
2019-01-11T19:46:13.618Z,101371.08
2019-01-11T19:48:47.442Z,101378.00
2019-01-11T19:51:19.727Z,101384.88
2019-01-11T19:53:52.384Z,101377.77
2019-01-11T19:56:25.575Z,101377.86
2019-01-11T19:58:58.358Z,101386.48
2019-01-11T20:01:32.608Z,101391.70
2019-01-11T20:04:05.453Z,101395.50
2019-01-11T20:06:38.836Z,101395.91
2019-01-11T20:09:12.189Z,101391.55
2019-01-11T20:11:44.523Z,101390.91
2019-01-11T20:14:17.257Z,101380.73
2019-01-11T20:16:50.260Z,101386.55
2019-01-11T20:19:23.067Z,101391.44
2019-01-11T20:21:55.923Z,101387.91
2019-01-11T20:24:28.700Z,101390.16
2019-01-11T20:27:02.971Z,101390.56
2019-01-11T20:29:36.545Z,101389.15
2019-01-11T20:32:08.913Z,101390.35
2019-01-11T20:34:41.506Z,101392.88
2019-01-11T20:37:43.178Z,101400.39
2019-01-11T20:40:17.445Z,101389.67
2019-01-11T20:42:50.454Z,101399.47
2019-01-11T20:45:26.327Z,101400.05
2019-01-11T20:47:59.237Z,101401.23
2019-01-11T20:50:32.075Z,101397.61
2019-01-11T20:53:04.887Z,101395.45
2019-01-11T20:55:37.129Z,101404.06
2019-01-11T20:58:09.894Z,101395.54
2019-01-11T21:00:43.717Z,101392.91
2019-01-11T21:03:17.603Z,101405.24
2019-01-11T21:05:51.736Z,101399.81
2019-01-11T21:08:24.005Z,101398.38
2019-01-11T21:10:57.476Z,101396.49
2019-01-11T21:13:30.617Z,101399.64
2019-01-11T21:16:03.089Z,101401.81
2019-01-11T21:18:36.506Z,101397.30
2019-01-11T21:21:10.638Z,101402.73
2019-01-11T21:23:48.710Z,101400.16
2019-01-11T21:26:19.431Z,101405.12
2019-01-11T21:28:52.161Z,101410.70
2019-01-11T21:31:25.234Z,101408.56
2019-01-11T21:33:58.372Z,101402.18
2019-01-11T21:36:32.209Z,101408.52
2019-01-11T21:39:06.279Z,101409.06
2019-01-11T21:41:41.015Z,101403.23
2019-01-11T21:44:14.200Z,101393.95
2019-01-11T21:46:46.817Z,101388.58
2019-01-11T21:49:19.486Z,101396.52
2019-01-11T21:51:52.149Z,101398.38
2019-01-11T21:54:25.145Z,101394.88
2019-01-11T21:56:59.324Z,101390.09
2019-01-11T21:59:32.991Z,101390.80
2019-01-11T22:02:05.127Z,101387.16
2019-01-11T22:04:37.455Z,101383.85
2019-01-11T22:07:10.067Z,101387.08
2019-01-11T22:09:43.120Z,101394.13
2019-01-11T22:12:15.462Z,101388.79
2019-01-11T22:14:48.176Z,101381.19
2019-01-11T22:17:21.876Z,101388.30
2019-01-11T22:19:54.495Z,101393.32
2019-01-11T22:22:28.617Z,101385.34
2019-01-11T22:25:01.289Z,101385.27
2019-01-11T22:27:34.576Z,101394.94
2019-01-11T22:30:13.391Z,101396.73
2019-01-11T22:32:45.698Z,101403.08
2019-01-11T22:35:19.163Z,101404.30
2019-01-11T22:37:52.866Z,101392.80
2019-01-11T22:40:26.821Z,101398.46
2019-01-11T22:43:01.415Z,101399.03
2019-01-11T22:45:34.645Z,101395.03
2019-01-11T22:48:06.974Z,101397.88
2019-01-11T22:50:40.728Z,101398.60
2019-01-11T22:53:13.542Z,101397.30
2019-01-11T22:55:46.188Z,101393.67
2019-01-11T22:58:19.292Z,101401.09
2019-01-11T23:01:43.212Z,101395.86
2019-01-11T23:04:18.557Z,101397.22
2019-01-11T23:07:16.301Z,101397.41
2019-01-11T23:10:07.609Z,101391.75
2019-01-11T23:13:00.256Z,101389.36
2019-01-11T23:15:37.427Z,101386.22
2019-01-11T23:18:17.298Z,101396.25
2019-01-11T23:20:53.462Z,101396.55
2019-01-11T23:23:26.319Z,101399.95
2019-01-11T23:26:00.015Z,101394.13
2019-01-11T23:28:32.652Z,101390.66
2019-01-11T23:31:05.518Z,101382.52
2019-01-11T23:33:38.278Z,101395.52
2019-01-11T23:36:11.242Z,101384.83
2019-01-11T23:38:44.122Z,101385.90
2019-01-11T23:41:16.739Z,101385.73
2019-01-11T23:43:49.363Z,101387.74
2019-01-11T23:48:59.626Z,101384.83
2019-01-11T23:51:32.643Z,101386.25
2019-01-11T23:54:05.863Z,101375.19
2019-01-11T23:56:38.808Z,101370.71
2019-01-11T23:59:10.742Z,101373.80
